Tiempo atmosférico en la estación meteorológica de Alcuescar, Cáceres (460 m.)



Fecha
DESCASC
Temp. máxima en grados centígrados (hora)
DESCASC
Temp. mínima en grados centígrados (hora)
DESCASC
Temp. media en grados centígrados
DESCASC
Racha de viento máxima en m/sg (hora)
DESCASC
Velocidad máxima media en intervalos de 10 minutos(hora)
DESCASC
Precipitaciones diarias en mm
DESCASC
Precipitaciones de 00:00 a 06:00 en mm
DESCASC
Precipitaciones de 06:00 a 12:00 en mm
DESCASC
Precipitaciones de 12:00 a 18:00 en mm
DESCASC
Precipitaciones de 18:00 a 24:00 en mm
DESCASC
05-04-2020 19.1 (14:20) 9.1 (08:20) 14.1 11.39 (19:00) 7.22 (10:50) 2.2 0 0 0 2.2
04-04-2020 17.8 (17:10) 7.8 (08:20) 12.8 11.11 (16:50) 7.22 (15:00) 0 0 0 0 0
03-04-2020 19.5 (17:00) 5.3 (07:50) 12.4 9.17 (12:50) 5.56 (12:20) 0 0 0 0 0
02-04-2020 17.4 (18:10) 5.4 (00:00) 11.4 7.78 (19:50) 5.56 (19:50) 6 4 2 0 0
01-04-2020 13.8 (16:40) 3.5 (00:00) 8.7 10 (17:30) 6.39 (15:00) 1.4 0 0 1.2 0.2
31-03-2020 13.6 (17:10) 5.6 (00:00) 9.6 9.72 (02:40) 5.56 (00:10) 9.8 1.6 5.2 3 0
30-03-2020 12 (16:00) 6.4 (00:00) 9.2 10 (23:59) 6.39 (23:50) 5.8 0 0 2.8 3
29-03-2020 18.3 (13:50) 7.2 (00:00) 12.7 4.72 (10:20) 3.61 (07:50) 0 0 0 0 0
28-03-2020 17.2 (17:00) 5 (00:00) 11.1 11.94 (10:10) 7.78 (09:40) 0 0 0 0 0
27-03-2020 14.2 (15:30) 3.5 (00:00) 8.8 8.06 (15:40) 5.28 (15:40) 0 0 0 0 0
26-03-2020 19 (16:30) 7.1 (00:00) 13 12.22 (14:50) 7.78 (15:00) 0 0 0 0 0
25-03-2020 19.4 (17:40) 9.2 (00:00) 14.3 10 (03:20) 5.83 (03:10) 0 0 0 0 0
24-03-2020 15.9 (15:20) 9.3 (00:00) 12.6 15.28 (10:20) 9.72 (10:20) 0 0 0 0 0
23-03-2020 16 (17:50) 6.6 (00:00) 11.3 10 (22:20) 5.83 (22:30) 0 0 0 0 0
22-03-2020 14.9 (17:20) 6.1 (07:40) 10.5 9.17 (17:50) 5.56 (17:50) 0.6 0.4 0.2 0 0
21-03-2020 13.7 (15:40) 7.3 (00:00) 10.5 8.61 (15:50) 5.28 (17:40) 22 15.4 2.4 0 4.2
20-03-2020 13.8 (17:00) 9 (00:00) 11.4 8.61 (05:50) 5.56 (05:40) 9.2 0 0.2 2.4 6.6
19-03-2020 19.2 (15:30) 9.8 (00:00) 14.5 10.83 (01:20) 6.67 (01:10) 0 0 0 0 0
18-03-2020 21 (15:00) 11 (00:00) 16 14.72 (02:40) 7.78 (02:50) 0 0 0 0 0
17-03-2020 16.9 (17:00) 3 (00:00) 9.9 11.67 (11:40) 7.22 (14:00) 0 0 0 0 0
16-03-2020 10.1 (13:20) 3.2 (00:00) 6.7 17.78 (14:40) 10.28 (16:30) 1.4 0 0 1 0.4
15-03-2020 20.4 (15:20) 6.9 (00:00) 13.6 11.39 (21:10) 7.5 (21:10) 0 0 0 0 0
14-03-2020 22.2 (17:40) 7.8 (00:00) 15 7.5 (11:10) 5.83 (11:10) 0 0 0 0 0
13-03-2020 19.2 (15:30) 9.7 (06:20) 14.5 5.83 (06:30) 4.17 (06:30) 0 0 0 0 0
12-03-2020 25.3 (15:10) 13.9 (00:00) 19.6 7.22 (11:50) 4.72 (11:40) 0 0 0 0 0
11-03-2020 26 (15:50) 11.3 (00:00) 18.7 7.5 (10:10) 6.11 (10:10) 0 0 0 0 0
10-03-2020 24.9 (17:50) 7.4 (00:00) 16.1 8.33 (11:50) 6.39 (10:00) 0 0 0 0 0
09-03-2020 19.1 (16:50) 4.8 (00:00) 12 9.72 (15:30) 6.11 (14:30) 0 0 0 0 0

Gráficas

Temp. máximas Temp. mínimas Temp. medias Precipitaciones Rachas de viento máximas Velocidades máximas media en intervalos de 10 minutos

Datos horarios

Fecha y hora oficial Temperatura (ºC) Velocidad del viento (km/h) Dirección del viento Racha (km/h) Dirección de racha Precipitación (mm) Presión (hPa) Tendencia (hPa) Humedad (%)
2020-04-07 23:00:00 13.7 3 Este 15 Sudeste 0 -- -- 96
2020-04-07 22:00:00 14.3 7 Sudeste 10 Sudeste 0 -- -- 94
2020-04-07 21:00:00 16.3 5 Este 9 Sudeste 0 -- -- 88
2020-04-07 20:00:00 17.5 4 Este 8 Sudeste 0 -- -- 84
2020-04-07 19:00:00 18.3 4 Sudoeste 10 Sudoeste 0 -- -- 78
2020-04-07 18:00:00 17 3 Oeste 12 Sudoeste 0.2 -- -- 85
2020-04-07 17:00:00 16.1 8 Sudoeste 13 Sudoeste 0 -- -- 91
2020-04-07 16:00:00 16.1 8 Sudeste 18 Sudeste 0.8 -- -- 96
2020-04-07 15:00:00 15.7 11 Sudeste 20 Sudeste 0.4 -- -- 94
2020-04-07 14:00:00 15.6 8 Sur 21 Sur 0.2 -- -- 94
2020-04-07 13:00:00 16.5 12 Sudeste 19 Sudeste 0 -- -- 96
2020-04-07 12:00:00 14.3 8 Sur 14 Sur 0.4 -- -- 100
2020-04-07 11:00:00 13.7 9 Sudeste 23 Sudeste 0 -- -- 100
2020-04-07 10:00:00 12.8 14 Sudeste 24 Sudeste 0 -- -- 100
2020-04-07 09:00:00 12.8 15 Sudeste 27 Sudeste 1.8 -- -- 100
2020-04-07 08:00:00 12.9 15 Sudeste 22 Sudeste 1.8 -- -- 100
2020-04-07 07:00:00 13 10 Sudeste 22 Sudeste 1 -- -- 100
2020-04-07 06:00:00 13 10 Sur 22 Sudeste 0.6 -- -- 100
2020-04-07 05:00:00 13 13 Sudeste 21 Sudeste 0 -- -- 100
2020-04-07 04:00:00 12.7 9 Sudeste 21 Sudeste 0 -- -- 100
2020-04-07 03:00:00 12.5 12 Sudeste 23 Sudeste 0.2 -- -- 100
2020-04-07 02:00:00 12.7 12 Sudeste 24 Sudeste 1.8 -- -- 99
2020-04-07 01:00:00 12.9 12 Sudeste 18 Sudeste 1.8 -- -- 99
2020-04-07 00:00:00 13 11 Sudeste 22 Sudeste 1.4 -- -- 99
2020-04-06 23:00:00 13.2 15 Sudeste 23 Sudeste 1.8 -- -- 98
2020-04-06 22:00:00 13.5 4 Nordeste 10 Nordeste 4.8 -- -- 98
2020-04-06 21:00:00 13.8 4 Noroeste 12 Este 3 -- -- 97
2020-04-06 20:00:00 14.1 6 Nordeste 11 Nordeste 3 -- -- 96
2020-04-06 19:00:00 14.4 6 Noroeste 25 Noroeste 1.8 -- -- 94
2020-04-06 18:00:00 17.9 5 Oeste 18 Sur 0 -- -- 69
2020-04-06 17:00:00 18.4 12 Sudoeste 19 Sudoeste 0 -- -- 67
2020-04-06 16:00:00 18.5 13 Sudoeste 21 Sur 0 -- -- 67
2020-04-06 15:00:00 18.3 11 Sur 19 Sudoeste 0 -- -- 75
2020-04-06 14:00:00 16.7 13 Sudoeste 19 Sur 0 -- -- 76
2020-04-06 13:00:00 16.2 11 Sudoeste 18 Sudoeste 0 -- -- 81
2020-04-06 12:00:00 15 12 Sudoeste 19 Sudoeste 0 -- -- 86
2020-04-06 11:00:00 14.4 10 Sur 17 Sur 0 -- -- 89
2020-04-06 10:00:00 13.1 4 Sur 8 Este 0 -- -- 93
2020-04-06 09:00:00 12.3 0 Calma 8 Noroeste 0 -- -- 97
2020-04-06 08:00:00 11.7 5 Oeste 10 Oeste 0 -- -- 97
2020-04-06 07:00:00 11.9 2 Sur 8 Oeste 0 -- -- 97
2020-04-06 06:00:00 12.3 5 Oeste 15 Sudoeste 0 -- -- 97
2020-04-06 05:00:00 12.7 6 Oeste 12 Sudoeste 0 -- -- 97
2020-04-06 04:00:00 13.1 8 Sudoeste 14 Sudoeste 0 -- -- 96
2020-04-06 03:00:00 13.3 8 Sudoeste 26 Sudoeste 0 -- -- 97
2020-04-06 02:00:00 13.5 17 Sudoeste 30 Sudoeste 1 -- -- 98
2020-04-06 01:00:00 13.6 15 Sur 39 Sur 1 -- -- 97
2020-04-06 00:00:00 13.7 15 Sudeste 31 Sur 0.2 -- -- 95
2020-04-05 23:00:00 14.1 20 Sur 34 Sudeste 0.6 -- -- 91
2020-04-05 22:00:00 14.3 15 Sur 27 Sur 0.4 -- -- 91
2020-04-05 21:00:00 14.7 19 Sur 34 Sur 0.8 -- -- 88
2020-04-05 20:00:00 15.2 16 Sur 35 Sur 0.2 -- -- 85
2020-04-05 19:00:00 16.6 26 Sur 41 Sudoeste 0 -- -- 75
2020-04-05 18:00:00 18.2 21 Sur 34 Sur 0 -- -- 67
2020-04-05 17:00:00 18.3 22 Sur 37 Sur 0 -- -- 65
2020-04-05 16:00:00 18.6 13 Sur 30 Sur 0 -- -- 68
2020-04-05 15:00:00 17.8 18 Sur 34 Sudeste 0 -- -- 65
2020-04-05 14:00:00 18.2 17 Sudeste 40 Sudeste 0 -- -- 66
2020-04-05 13:00:00 17.6 26 Sudeste 40 Sudeste 0 -- -- 66
2020-04-05 12:00:00 15 23 Sudeste 40 Este 0 -- -- 74
2020-04-05 11:00:00 13.1 26 Sudeste 38 Sudeste 0 -- -- 77
2020-04-05 10:00:00 11.3 18 Sudeste 32 Sudeste 0 -- -- 84
2020-04-05 09:00:00 10.7 15 Sudeste 22 Sudeste 0 -- -- 85
2020-04-05 08:00:00 9.3 14 Sudeste 23 Sudeste 0 -- -- 89
2020-04-05 07:00:00 9.6 14 Sudeste 23 Sudeste 0 -- -- 88
2020-04-05 06:00:00 9.6 14 Sudeste 23 Sudeste 0 -- -- 89
2020-04-05 05:00:00 10.1 18 Sudeste 32 Sudeste 0 -- -- 88
2020-04-05 04:00:00 10.4 17 Sudeste 22 Sudeste 0 -- -- 87
2020-04-05 03:00:00 11 15 Sudeste 22 Sudeste 0 -- -- 86
2020-04-05 02:00:00 10.6 14 Sudeste 19 Sudeste 0 -- -- 87
2020-04-05 01:00:00 11 13 Sudeste 20 Sudeste 0 -- -- 85
2020-04-05 00:00:00 12.1 13 Sudeste 18 Sudeste 0 -- -- 80
2020-04-04 23:00:00 12.3 10 Sudeste 14 Sudeste 0 -- -- 79
2020-04-04 22:00:00 12.7 10 Sudeste 18 Sudeste 0 -- -- 76
2020-04-04 21:00:00 13.7 13 Sudeste 22 Sudeste 0 -- -- 68
2020-04-04 20:00:00 14.8 12 Sudeste 26 Sur 0 -- -- 63
2020-04-04 19:00:00 15.6 18 Sur 27 Sur 0 -- -- 57
2020-04-04 18:00:00 16.4 19 Sur 33 Sudeste 0 -- -- 51
2020-04-04 17:00:00 17.7 19 Sur 40 Sudeste 0 -- -- 51
2020-04-04 16:00:00 17.4 20 Sudeste 34 Sudeste 0 -- -- 52
2020-04-04 15:00:00 16.3 26 Sudeste 37 Sudeste 0 -- -- 50
2020-04-04 14:00:00 15.6 23 Sudeste 38 Sudeste 0 -- -- 59
2020-04-04 13:00:00 15.1 21 Sudeste 36 Sudeste 0 -- -- 69
2020-04-04 12:00:00 14.4 25 Sudeste 37 Sudeste 0 -- -- 69
2020-04-04 11:00:00 14 24 Sudeste 33 Sudeste 0 -- -- 70
2020-04-04 10:00:00 12.5 17 Sudeste 28 Sudeste 0 -- -- 72
2020-04-04 09:00:00 9.9 5 Sudeste 10 Este 0 -- -- 82
2020-04-04 08:00:00 8 5 Sudeste 12 Este 0 -- -- 87
2020-04-04 07:00:00 8.6 6 Sudeste 10 Sudeste 0 -- -- 85
2020-04-04 06:00:00 8.8 9 Sudeste 13 Sudeste 0 -- -- 86
2020-04-04 05:00:00 9.4 8 Sudeste 12 Sudeste 0 -- -- 80
2020-04-04 04:00:00 10.4 6 Sudeste 8 Sudeste 0 -- -- 73
2020-04-04 03:00:00 10.7 6 Sudeste 14 Este 0 -- -- 71
2020-04-04 02:00:00 11.7 10 Sudeste 12 Sudeste 0 -- -- 62
2020-04-04 01:00:00 12.7 8 Sudeste 10 Este 0 -- -- 54
2020-04-04 00:00:00 13.3 8 Este 12 Este 0 -- -- 51
2020-04-03 23:00:00 14 10 Este 14 Este 0 -- -- 52
2020-04-03 22:00:00 14 10 Este 13 Este 0 -- -- 57
2020-04-03 21:00:00 15.4 7 Este 16 Sudeste 0 -- -- 53
2020-04-03 20:00:00 17.8 9 Sudeste 17 Este 0 -- -- 50
2020-04-03 19:00:00 18.8 12 Sudeste 21 Sudeste 0 -- -- 46
2020-04-03 18:00:00 19.2 9 Sudeste 19 Este 0 -- -- 48
2020-04-03 17:00:00 19.5 11 Sudeste 22 Este 0 -- -- 47
2020-04-03 16:00:00 18.8 11 Sudeste 25 Sudeste 0 -- -- 52
2020-04-03 15:00:00 18.4 9 Sudeste 24 Este 0 -- -- 56
2020-04-03 14:00:00 17 15 Sudeste 25 Este 0 -- -- 57
2020-04-03 13:00:00 16.3 17 Sudeste 33 Sudeste 0 -- -- 61
2020-04-03 12:00:00 14.9 18 Sudeste 27 Este 0 -- -- 70
2020-04-03 11:00:00 13.5 20 Sudeste 27 Sudeste 0 -- -- 72
2020-04-03 10:00:00 11.7 12 Sudeste 21 Sudeste 0 -- -- 82
2020-04-03 09:00:00 6.8 3 Oeste 7 Sudoeste 0 -- -- 96
2020-04-03 08:00:00 5.3 4 Oeste 6 Sudoeste 0 -- -- 96
2020-04-03 07:00:00 5.5 5 Oeste 9 Oeste 0 -- -- 96
2020-04-03 06:00:00 5.9 7 Oeste 9 Oeste 0 -- -- 94
2020-04-03 05:00:00 6.4 7 Oeste 9 Oeste 0 -- -- 93
2020-04-03 04:00:00 7 6 Oeste 8 Oeste 0 -- -- 91
2020-04-03 03:00:00 7.7 4 Noroeste 9 Noroeste 0 -- -- 89
2020-04-03 02:00:00 8.3 2 Sudeste 11 Noroeste 0 -- -- 86
2020-04-03 01:00:00 9.3 8 Noroeste 10 Oeste 0 -- -- 83
2020-04-03 00:00:00 10 7 Oeste 9 Oeste 0 -- -- 79
2020-04-02 23:00:00 10.6 6 Noroeste 9 Noroeste 0 -- -- 78
2020-04-02 22:00:00 11 7 Oeste 10 Oeste 0 -- -- 77
2020-04-02 21:00:00 12.8 7 Oeste 27 Noroeste 0 -- -- 71
2020-04-02 20:00:00 15.4 15 Noroeste 28 Noroeste 0 -- -- 60
2020-04-02 19:00:00 16.9 14 Noroeste 27 Oeste 0 -- -- 50
2020-04-02 18:00:00 16.9 12 Noroeste 26 Noroeste 0 -- -- 49
2020-04-02 17:00:00 16.6 14 Noroeste 26 Oeste 0 -- -- 54
2020-04-02 16:00:00 15.7 12 Noroeste 22 Noroeste 0 -- -- 54
2020-04-02 15:00:00 15.3 8 Este 17 Norte 0 -- -- 60
2020-04-02 14:00:00 13.7 9 Norte 19 Norte 0 -- -- 66
2020-04-02 13:00:00 11.8 8 Norte 20 Norte 0 -- -- 74
2020-04-02 12:00:00 11.1 10 Norte 19 Norte 0 -- -- 81
2020-04-02 11:00:00 8.9 4 Noroeste 10 Oeste 0 -- -- 90
2020-04-02 10:00:00 6.7 4 Norte 9 Norte 0 -- -- 97
2020-04-02 09:00:00 6.1 2 Este 14 Nordeste 0.2 -- -- 98
2020-04-02 08:00:00 5.7 9 Norte 14 Norte 1.8 -- -- 98
2020-04-02 07:00:00 6 7 Noroeste 13 Norte 0 -- -- 98
2020-04-02 06:00:00 5.4 6 Noroeste 23 Noroeste 1.6 -- -- 97
2020-04-02 05:00:00 7 2 Este 22 Este 0.4 -- -- 97
2020-04-02 04:00:00 7.4 13 Este 22 Sudeste 0.8 -- -- 97
2020-04-02 03:00:00 7.4 5 Sudeste 15 Este 0.2 -- -- 98
2020-04-02 02:00:00 7.3 7 Sudeste 16 Este 0.2 -- -- 97
2020-04-02 01:00:00 7.4 10 Sudeste 18 Sudeste 0.8 -- -- 96
2020-04-02 00:00:00 7.6 11 Sudeste 21 Sudeste 0 -- -- 94
2020-04-01 23:00:00 7.7 9 Sudeste 18 Sudeste 0 -- -- 94
2020-04-01 22:00:00 8.2 6 Sudeste 17 Sudeste 0.2 -- -- 93
2020-04-01 21:00:00 8.5 13 Sudeste 23 Sudeste 0 -- -- 89
2020-04-01 20:00:00 10.2 15 Sudeste 25 Sudeste 0 -- -- 79
2020-04-01 19:00:00 10.9 12 Sudeste 23 Sudeste 0 -- -- 80
2020-04-01 18:00:00 9.1 15 Sudeste 36 Sudoeste 0.8 -- -- 89
2020-04-01 17:00:00 12.9 12 Sur 25 Sudeste 0 -- -- 59
2020-04-01 16:00:00 12.3 12 Sudeste 25 Sur 0.2 -- -- 71
2020-04-01 15:00:00 9.7 23 Sur 35 Sur 0.2 -- -- 79
2020-04-01 14:00:00 11.9 17 Sudoeste 27 Sur 0 -- -- 59
2020-04-01 13:00:00 11.5 9 Sudeste 21 Sudeste 0 -- -- 64
2020-04-01 12:00:00 11 8 Sur 22 Este 0 -- -- 70
2020-04-01 11:00:00 9.9 12 Sudeste 19 Sudeste 0 -- -- 73
2020-04-01 10:00:00 7.9 6 Este 9 Sur 0 -- -- 87
2020-04-01 09:00:00 4.6 6 Sudoeste 11 Sudoeste 0 -- -- 97
2020-04-01 08:00:00 3.6 3 Sudeste 9 Este 0 -- -- 96
2020-04-01 07:00:00 4.4 3 Sudeste 8 Sur 0 -- -- 94
2020-04-01 06:00:00 5.1 4 Sudeste 9 Sudeste 0 -- -- 92
2020-04-01 05:00:00 5.8 4 Sudeste 6 Sudeste 0 -- -- 91
2020-04-01 04:00:00 5.8 3 Sur 4 Sur 0 -- -- 87
2020-04-01 03:00:00 5.6 0 Calma 6 Nordeste 0 -- -- 87
2020-04-01 02:00:00 5.4 0 Calma 5 Nordeste 0 -- -- 89
2020-04-01 01:00:00 5.6 0 Calma 15 Sudoeste 0 -- -- 86
2020-04-01 00:00:00 7.1 10 Oeste 23 Oeste 0 -- -- 82
2020-03-31 23:00:00 7.7 6 Oeste 23 Oeste 0 -- -- 88
2020-03-31 22:00:00 8.9 12 Oeste 21 Oeste 0 -- -- 91
2020-03-31 21:00:00 10.1 7 Sudoeste 18 Sudoeste 0 -- -- 88
2020-03-31 20:00:00 11.4 13 Sudoeste 27 Sudoeste 0 -- -- 82
2020-03-31 19:00:00 12.6 16 Sudoeste 27 Sudoeste 0 -- -- 77
2020-03-31 18:00:00 13.1 13 Sudoeste 26 Sudoeste 0 -- -- 80
2020-03-31 17:00:00 12.7 12 Sudoeste 22 Sudoeste 0.2 -- -- 87
2020-03-31 16:00:00 12.6 8 Sur 21 Sur 2 -- -- 89
2020-03-31 15:00:00 11.2 8 Sudeste 21 Sudeste 0.4 -- -- 92
2020-03-31 14:00:00 10.9 13 Sudeste 28 Sudeste 0.4 -- -- 95
2020-03-31 13:00:00 10.2 18 Sudeste 28 Sudeste 0 -- -- 92
2020-03-31 12:00:00 8.2 17 Sudeste 27 Sudeste 0 -- -- 98
2020-03-31 11:00:00 7.9 18 Sudeste 28 Sudeste 0.2 -- -- 99
2020-03-31 10:00:00 6.9 14 Sudeste 24 Sudeste 0.6 -- -- 100
2020-03-31 09:00:00 6.1 12 Sudeste 22 Sudeste 1.2 -- -- 99
2020-03-31 08:00:00 5.9 12 Sudeste 23 Sudeste 1.4 -- -- 98
2020-03-31 07:00:00 6.1 13 Sudeste 26 Sudeste 1.8 -- -- 98
2020-03-31 06:00:00 5.7 13 Sudeste 25 Este 1.4 -- -- 97
2020-03-31 05:00:00 5.9 14 Sudeste 25 Sudeste 0.2 -- -- 93
2020-03-31 04:00:00 6.7 12 Este 24 Este 0 -- -- 87
2020-03-31 03:00:00 6.9 8 Este 35 Este 0 -- -- 86
2020-03-31 02:00:00 6.8 13 Este 30 Este 0 -- -- 88
2020-03-31 01:00:00 6.3 12 Nordeste 29 Este 0 -- -- 93
2020-03-31 00:00:00 6.4 23 Este 36 Este 0 -- -- 94
2020-03-30 23:00:00 7.2 12 Nordeste 24 Nordeste 0.6 -- -- 95
2020-03-30 22:00:00 7.9 10 Sudeste 31 Sudeste 0 -- -- 94
2020-03-30 21:00:00 8.3 18 Sudeste 30 Sudeste 0 -- -- 94
2020-03-30 20:00:00 9.4 9 Nordeste 24 Este 0.2 -- -- 96
2020-03-30 19:00:00 9.9 2 Nordeste 10 Nordeste 2.2 -- -- 96
2020-03-30 18:00:00 10.3 4 Nordeste 14 Norte 0.8 -- -- 91
2020-03-30 17:00:00 11.3 6 Norte 17 Norte 0.4 -- -- 86
2020-03-30 16:00:00 12 9 Norte 15 Norte 0 -- -- 83
2020-03-30 15:00:00 11.6 8 Noroeste 14 Norte 0 -- -- 88
2020-03-30 14:00:00 10.9 7 Noroeste 13 Noroeste 1 -- -- 92
2020-03-30 13:00:00 10.8 4 Oeste 9 Oeste 0.6 -- -- 87
2020-03-30 12:00:00 11.7 4 Noroeste 10 Oeste 0 -- -- 80
2020-03-30 11:00:00 10.7 5 Noroeste 8 Noroeste 0 -- -- 85
2020-03-30 10:00:00 10.4 5 Noroeste 9 Sudoeste 0 -- -- 82
2020-03-30 09:00:00 9.6 3 Oeste 9 Sudoeste 0 -- -- 84
2020-03-30 08:00:00 8.7 4 Oeste 6 Nordeste 0 -- -- 85
2020-03-30 07:00:00 8.9 6 Norte 8 Sudoeste 0 -- -- 85
2020-03-30 06:00:00 9.7 5 Oeste 8 Oeste 0 -- -- 84
2020-03-30 05:00:00 10.1 5 Norte 11 Sudoeste 0 -- -- 84
2020-03-30 04:00:00 10.6 8 Sudoeste 14 Sudoeste 0 -- -- 82
2020-03-30 03:00:00 11 9 Sudoeste 14 Sudoeste 0 -- -- 79
2020-03-30 02:00:00 10.8 10 Sudoeste 13 Sudoeste 0 -- -- 77
2020-03-30 01:00:00 11.1 3 Noroeste 7 Norte 0 -- -- 72
2020-03-30 00:00:00 11.4 6 Noroeste 9 Oeste 0 -- -- 70
2020-03-29 23:00:00 12.6 6 Sudoeste 9 Sudoeste 0 -- -- 62
2020-03-29 22:00:00 13.1 5 Noroeste 7 Oeste 0 -- -- 62
2020-03-29 21:00:00 14.1 3 Oeste 10 Noroeste 0 -- -- 62
2020-03-29 20:00:00 15.8 5 Noroeste 13 Noroeste 0 -- -- 56
2020-03-29 19:00:00 17.1 6 Oeste 12 Noroeste 0 -- -- 50
2020-03-29 18:00:00 16.8 5 Noroeste 10 Oeste 0 -- -- 51
2020-03-29 17:00:00 17.4 4 Este 12 Sudoeste 0 -- -- 48
2020-03-29 16:00:00 16.4 4 Oeste 11 Sur 0 -- -- 50
2020-03-29 15:00:00 17.4 4 Sudeste 15 Sudeste 0 -- -- 48
2020-03-29 14:00:00 18.2 7 Sudeste 15 Este 0 -- -- 44
2020-03-29 13:00:00 17.1 5 Sudeste 13 Sudeste 0 -- -- 49
2020-03-29 12:00:00 15.3 8 Sudeste 15 Sudeste 0 -- -- 52
2020-03-29 11:00:00 13.8 10 Sudeste 17 Sudeste 0 -- -- 54
2020-03-29 10:00:00 12 11 Sudeste 16 Sudeste 0 -- -- 57
2020-03-29 09:00:00 9 11 Sudeste 16 Sudeste 0 -- -- 64
2020-03-29 08:00:00 7.5 11 Sudeste 17 Sudeste 0 -- -- 70
2020-03-29 07:00:00 7.6 10 Sudeste 12 Sudeste 0 -- -- 74
2020-03-29 06:00:00 8.2 8 Sur 13 Sudoeste 0 -- -- 74
2020-03-29 05:00:00 7.9 9 Sudeste 16 Sudeste 0 -- -- 76
2020-03-29 03:00:00 10 0 Calma 12 Nordeste 0 -- -- 62
2020-03-29 01:00:00 10.3 7 Nordeste 14 Nordeste 0 -- -- 62
2020-03-29 00:00:00 10.5 4 Nordeste 12 Nordeste 0 -- -- 59
2020-03-28 23:00:00 10.9 8 Nordeste 9 Nordeste 0 -- -- 57
2020-03-28 22:00:00 11 6 Nordeste 7 Nordeste 0 -- -- 57
2020-03-28 21:00:00 11.5 5 Norte 6 Norte 0 -- -- 57
2020-03-28 20:00:00 13.3 0 Calma 14 Sudeste 0 -- -- 52
2020-03-28 19:00:00 15.2 7 Sudeste 21 Este 0 -- -- 46
2020-03-28 18:00:00 16.6 12 Sudeste 23 Sudeste 0 -- -- 44
2020-03-28 17:00:00 17.2 12 Sudeste 24 Sudeste 0 -- -- 43
2020-03-28 16:00:00 16.8 14 Sudeste 30 Sudeste 0 -- -- 47
2020-03-28 15:00:00 16.2 12 Sudeste 31 Este 0 -- -- 47
2020-03-28 14:00:00 14.3 18 Sudeste 30 Este 0 -- -- 58
2020-03-28 13:00:00 13.4 17 Este 31 Sudeste 0 -- -- 61
2020-03-28 12:00:00 11.6 19 Sudeste 35 Sudeste 0 -- -- 68
2020-03-28 11:00:00 10.5 23 Este 43 Sudeste 0 -- -- 68
2020-03-28 10:00:00 9.6 23 Sudeste 41 Este 0 -- -- 72
2020-03-28 09:00:00 7.6 21 Este 41 Este 0 -- -- 75
2020-03-28 08:00:00 7 23 Este 35 Sudeste 0 -- -- 76
2020-03-28 07:00:00 5.8 17 Sudeste 33 Sudeste 0 -- -- 79
2020-03-28 06:00:00 5.3 5 Este 11 Este 0 -- -- 79
2020-03-28 05:00:00 5 6 Nordeste 10 Nordeste 0 -- -- 79
2020-03-28 04:00:00 5.8 5 Nordeste 17 Nordeste 0 -- -- 77
2020-03-28 03:00:00 6.1 7 Este 20 Nordeste 0 -- -- 77
2020-03-28 02:00:00 6.5 7 Este 19 Este 0 -- -- 75
2020-03-28 01:00:00 7.3 12 Este 24 Nordeste 0 -- -- 72
2020-03-28 00:00:00 7.3 14 Este 25 Sudeste 0 -- -- 72
2020-03-27 23:00:00 7.6 15 Este 23 Sudeste 0 -- -- 71
2020-03-27 22:00:00 8 10 Este 22 Este 0 -- -- 71
2020-03-27 21:00:00 9.1 14 Este 26 Sudeste 0 -- -- 67
2020-03-27 20:00:00 9.8 10 Este 19 Sudeste 0 -- -- 66
2020-03-27 19:00:00 11.9 8 Nordeste 17 Este 0 -- -- 59
2020-03-27 18:00:00 11.7 10 Este 21 Nordeste 0 -- -- 61
2020-03-27 17:00:00 11.6 12 Nordeste 22 Nordeste 0 -- -- 63
2020-03-27 16:00:00 11.9 13 Sudeste 29 Este 0 -- -- 67
2020-03-27 15:00:00 14 13 Sudeste 24 Sudeste 0 -- -- 64
2020-03-27 14:00:00 13.1 12 Este 24 Sudeste 0 -- -- 72
2020-03-27 13:00:00 11.2 15 Sudeste 28 Sudeste 0 -- -- 78
2020-03-27 12:00:00 7.9 10 Sudeste 16 Sudeste 0 -- -- 97
2020-03-27 11:00:00 6.7 2 Nordeste 10 Nordeste 0 -- -- 99
2020-03-27 10:00:00 5.9 7 Este 14 Este 0 -- -- 99
2020-03-27 09:00:00 5.1 6 Sudeste 13 Sudeste 0 -- -- 99
2020-03-27 08:00:00 3.8 3 Sudeste 6 Oeste 0 -- -- 98
2020-03-27 07:00:00 3.5 3 Oeste 7 Oeste 0 -- -- 98
2020-03-27 06:00:00 4.1 5 Oeste 8 Sudoeste 0 -- -- 97
2020-03-27 05:00:00 5 3 Oeste 10 Sudoeste 0 -- -- 96
2020-03-27 04:00:00 5.5 6 Oeste 8 Oeste 0 -- -- 96
2020-03-27 03:00:00 5.9 3 Oeste 8 Sudoeste 0 -- -- 96
2020-03-27 02:00:00 6.9 6 Sudoeste 17 Sudoeste 0 -- -- 96
2020-03-27 01:00:00 7.5 8 Sudoeste 17 Sudoeste 0 -- -- 94
2020-03-27 00:00:00 8.5 10 Sudoeste 15 Sudoeste 0 -- -- 90
2020-03-26 23:00:00 10 2 Sudoeste 13 Oeste 0 -- -- 79
2020-03-26 22:00:00 10.8 9 Oeste 15 Oeste 0 -- -- 80
2020-03-26 21:00:00 11.9 8 Oeste 17 Oeste 0 -- -- 73
2020-03-26 20:00:00 14.5 12 Oeste 24 Oeste 0 -- -- 60
2020-03-26 19:00:00 17.5 14 Oeste 28 Oeste 0 -- -- 48
2020-03-26 18:00:00 18.7 17 Noroeste 31 Noroeste 0 -- -- 44
2020-03-26 17:00:00 19 20 Noroeste 35 Oeste 0 -- -- 40
2020-03-26 16:00:00 18.8 20 Noroeste 39 Noroeste 0 -- -- 37
2020-03-26 15:00:00 17.7 28 Noroeste 44 Noroeste 0 -- -- 38
2020-03-26 14:00:00 17.4 21 Noroeste 35 Noroeste 0 -- -- 41
2020-03-26 13:00:00 16.6 20 Noroeste 31 Oeste 0 -- -- 40
2020-03-26 12:00:00 15.7 18 Oeste 29 Oeste 0 -- -- 55
2020-03-26 11:00:00 14.3 17 Noroeste 29 Oeste 0 -- -- 67
2020-03-26 10:00:00 12.3 18 Noroeste 27 Noroeste 0 -- -- 70
2020-03-26 09:00:00 10.4 14 Noroeste 21 Noroeste 0 -- -- 79
2020-03-26 08:00:00 8 11 Noroeste 17 Noroeste 0 -- -- 89
2020-03-26 07:00:00 7.3 6 Noroeste 14 Oeste 0 -- -- 90
2020-03-26 06:00:00 7.6 6 Oeste 13 Noroeste 0 -- -- 90
2020-03-26 05:00:00 8.5 10 Noroeste 13 Noroeste 0 -- -- 87
2020-03-26 04:00:00 9.9 4 Noroeste 10 Oeste 0 -- -- 83
2020-03-26 03:00:00 10.9 5 Noroeste 10 Oeste 0 -- -- 82
2020-03-26 02:00:00 10 4 Sudeste 9 Sur 0 -- -- 86
2020-03-26 01:00:00 10.8 3 Sur 11 Oeste 0 -- -- 82
2020-03-26 00:00:00 11.8 6 Noroeste 18 Noroeste 0 -- -- 78
2020-03-25 23:00:00 12.6 12 Oeste 19 Oeste 0 -- -- 76
2020-03-25 22:00:00 13.4 10 Oeste 16 Oeste 0 -- -- 72
2020-03-25 21:00:00 13.8 8 Oeste 20 Oeste 0 -- -- 69
2020-03-25 20:00:00 15 8 Oeste 20 Sudoeste 0 -- -- 66
2020-03-25 19:00:00 17.9 10 Oeste 21 Oeste 0 -- -- 55
2020-03-25 18:00:00 19 11 Oeste 19 Sudoeste 0 -- -- 51
2020-03-25 17:00:00 19 11 Noroeste 24 Oeste 0 -- -- 48
2020-03-25 16:00:00 18.4 11 Noroeste 22 Oeste 0 -- -- 51
2020-03-25 15:00:00 17.7 10 Noroeste 22 Noroeste 0 -- -- 53
2020-03-25 14:00:00 17.4 9 Oeste 19 Noroeste 0 -- -- 52
2020-03-25 13:00:00 16.5 6 Sudoeste 13 Oeste 0 -- -- 56
2020-03-25 12:00:00 15.7 6 Este 13 Sudeste 0 -- -- 55
2020-03-25 11:00:00 14.6 8 Sudeste 25 Sudeste 0 -- -- 60
2020-03-25 10:00:00 12.6 18 Sudeste 29 Sudeste 0 -- -- 61
2020-03-25 09:00:00 11.5 15 Sudeste 32 Este 0 -- -- 65
2020-03-25 08:00:00 9.9 19 Sudeste 30 Sudeste 0 -- -- 70
2020-03-25 07:00:00 9.3 15 Sudeste 23 Este 0 -- -- 72
2020-03-25 06:00:00 9.6 14 Sudeste 24 Sudeste 0 -- -- 72
2020-03-25 05:00:00 9.3 12 Sudeste 26 Sudeste 0 -- -- 76
2020-03-25 04:00:00 10.2 16 Sudeste 36 Sudeste 0 -- -- 72
2020-03-25 03:00:00 10.1 18 Sudeste 32 Sudeste 0 -- -- 73
2020-03-25 02:00:00 10.5 21 Sudeste 35 Sudeste 0 -- -- 71
2020-03-25 01:00:00 10 8 Este 32 Sudeste 0 -- -- 75
2020-03-25 00:00:00 10.8 17 Sudeste 34 Este 0 -- -- 73
2020-03-24 23:00:00 11.6 21 Este 34 Este 0 -- -- 69
2020-03-24 22:00:00 12.6 18 Este 38 Este 0 -- -- 64
2020-03-24 21:00:00 13.5 21 Este 45 Este 0 -- -- 62
2020-03-24 20:00:00 14.2 19 Este 35 Este 0 -- -- 61
2020-03-24 19:00:00 14.6 18 Este 38 Este 0 -- -- 60
2020-03-24 18:00:00 15.1 19 Este 45 Este 0 -- -- 59
2020-03-24 17:00:00 15.4 28 Este 48 Este 0 -- -- 58
2020-03-24 16:00:00 15.4 23 Este 52 Este 0 -- -- 60
2020-03-24 15:00:00 15.2 27 Este 49 Este 0 -- -- 61
2020-03-24 14:00:00 15.3 27 Este 45 Nordeste 0 -- -- 60
2020-03-24 13:00:00 14.6 30 Nordeste 46 Este 0 -- -- 63
2020-03-24 12:00:00 15.5 26 Este 53 Este 0 -- -- 62
2020-03-24 11:00:00 14.7 30 Este 55 Este 0 -- -- 62
2020-03-24 10:00:00 14.3 24 Este 50 Este 0 -- -- 65
2020-03-24 09:00:00 13.1 23 Este 39 Este 0 -- -- 69
2020-03-24 08:00:00 9.7 10 Nordeste 22 Nordeste 0 -- -- 87
2020-03-24 07:00:00 9.5 10 Nordeste 23 Este 0 -- -- 86
2020-03-24 06:00:00 10.1 12 Nordeste 27 Nordeste 0 -- -- 85
2020-03-24 05:00:00 11.1 13 Nordeste 28 Este 0 -- -- 76
2020-03-24 04:00:00 11.8 15 Nordeste 35 Este 0 -- -- 74
2020-03-24 03:00:00 11.4 18 Este 30 Este 0 -- -- 79
2020-03-24 02:00:00 11.2 9 Este 19 Este 0 -- -- 78
2020-03-24 01:00:00 10.9 5 Sudeste 18 Este 0 -- -- 77
2020-03-24 00:00:00 10.4 7 Sudeste 21 Este 0 -- -- 77
2020-03-23 23:00:00 12.1 15 Este 36 Este 0 -- -- 68
2020-03-23 22:00:00 11.5 14 Este 28 Este 0 -- -- 72
2020-03-23 21:00:00 10.7 11 Nordeste 16 Nordeste 0 -- -- 77
2020-03-23 20:00:00 10.8 9 Nordeste 13 Nordeste 0 -- -- 73
2020-03-23 19:00:00 12.3 10 Nordeste 25 Este 0 -- -- 68
2020-03-23 18:00:00 15.6 14 Este 27 Nordeste 0 -- -- 52
2020-03-23 17:00:00 15.5 15 Nordeste 26 Norte 0 -- -- 58
2020-03-23 16:00:00 14.5 16 Nordeste 32 Nordeste 0 -- -- 64
2020-03-23 15:00:00 14.9 17 Nordeste 25 Nordeste 0 -- -- 62
2020-03-23 14:00:00 14.2 9 Nordeste 27 Este 0 -- -- 67
2020-03-23 13:00:00 14.3 12 Este 28 Sudeste 0 -- -- 66
2020-03-23 12:00:00 14.3 19 Sudeste 31 Sudeste 0 -- -- 65
2020-03-23 11:00:00 13.3 13 Este 28 Sudeste 0 -- -- 70
2020-03-23 10:00:00 12.6 13 Este 22 Este 0 -- -- 75
2020-03-23 09:00:00 11.3 9 Este 15 Este 0 -- -- 81
2020-03-23 08:00:00 7.8 9 Este 13 Este 0 -- -- 98
2020-03-23 07:00:00 6.8 5 Nordeste 8 Norte 0 -- -- 97
2020-03-23 06:00:00 7 5 Sudeste 8 Nordeste 0 -- -- 95
2020-03-23 05:00:00 7.7 0 Calma 11 Oeste 0 -- -- 98
2020-03-23 04:00:00 8 5 Oeste 9 Noroeste 0 -- -- 96
2020-03-23 03:00:00 8.7 0 Calma 8 Norte 0 -- -- 95
2020-03-23 02:00:00 8 3 Noroeste 5 Noroeste 0 -- -- 96
2020-03-23 01:00:00 8.9 0 Calma 6 Este 0 -- -- 92
2020-03-23 00:00:00 9.5 0 Calma 5 Sudeste 0 -- -- 88
2020-03-22 23:00:00 10 3 Noroeste 10 Nordeste 0 -- -- 86
2020-03-22 22:00:00 9.8 4 Nordeste 9 Nordeste 0 -- -- 87
2020-03-22 21:00:00 10.1 5 Noroeste 24 Norte 0 -- -- 82
2020-03-22 20:00:00 10.5 5 Norte 10 Norte 0 -- -- 85
2020-03-22 19:00:00 10.7 9 Sudeste 24 Sudeste 0 -- -- 85
2020-03-22 18:00:00 11.1 19 Sudeste 33 Sudeste 0 -- -- 82
2020-03-22 17:00:00 14.6 5 Norte 15 Oeste 0 -- -- 60
2020-03-22 16:00:00 14.3 6 Sudoeste 15 Sudeste 0 -- -- 65
2020-03-22 15:00:00 13.6 0 Calma 13 Sudeste 0 -- -- 65
2020-03-22 14:00:00 14.2 7 Sudeste 14 Este 0 -- -- 66
2020-03-22 13:00:00 12.6 4 Norte 14 Este 0 -- -- 68
2020-03-22 12:00:00 13.8 7 Sudeste 15 Sudeste 0 -- -- 70
2020-03-22 11:00:00 12.4 7 Este 17 Este 0 -- -- 72
2020-03-22 10:00:00 10.8 10 Este 16 Sudeste 0 -- -- 81
2020-03-22 09:00:00 9.3 10 Sudeste 15 Sudeste 0 -- -- 85
2020-03-22 08:00:00 6.6 4 Nordeste 6 Nordeste 0.2 -- -- 96
2020-03-22 07:00:00 6.3 4 Norte 14 Este 0 -- -- 95
2020-03-22 06:00:00 6.5 4 Este 10 Este 0 -- -- 96
2020-03-22 05:00:00 6.6 7 Este 16 Este 0 -- -- 96
2020-03-22 04:00:00 7.2 9 Este 20 Este 0 -- -- 96
2020-03-22 03:00:00 7.5 8 Este 14 Este 0.2 -- -- 97
2020-03-22 02:00:00 7.8 4 Este 16 Sudeste 0 -- -- 96
2020-03-22 01:00:00 7.9 8 Sudeste 19 Este 0.2 -- -- 96
2020-03-22 00:00:00 8.1 7 Este 15 Este 0 -- -- 93
2020-03-21 23:00:00 8.1 8 Este 17 Este 0 -- -- 93
2020-03-21 22:00:00 7.9 9 Este 20 Sudeste 0.2 -- -- 96
2020-03-21 21:00:00 8.1 15 Este 23 Sudeste 0.6 -- -- 96
2020-03-21 20:00:00 8.3 2 Este 9 Sudeste 0.6 -- -- 96
2020-03-21 19:00:00 8.3 6 Sudeste 29 Este 2.8 -- -- 95
2020-03-21 18:00:00 10.2 14 Sudoeste 31 Este 0 -- -- 84
2020-03-21 17:00:00 12.7 13 Este 28 Sudeste 0 -- -- 67
2020-03-21 16:00:00 13.2 18 Este 31 Este 0 -- -- 65
2020-03-21 15:00:00 12.3 14 Sudeste 26 Sudeste 0 -- -- 70
2020-03-21 14:00:00 13.2 9 Este 27 Sudeste 0 -- -- 67
2020-03-21 13:00:00 11.5 11 Sudeste 20 Sudeste 0 -- -- 75
2020-03-21 12:00:00 10.6 6 Sur 18 Sur 0 -- -- 83
2020-03-21 11:00:00 9.6 8 Sur 17 Sur 0 -- -- 87
2020-03-21 10:00:00 8.4 10 Sudoeste 18 Sudoeste 0 -- -- 94
2020-03-21 09:00:00 7.5 10 Sudoeste 17 Sudoeste 0.2 -- -- 98
2020-03-21 08:00:00 7.3 3 Sudoeste 14 Sudoeste 0.8 -- -- 98
2020-03-21 07:00:00 7.5 3 Sur 14 Sur 1.4 -- -- 97
2020-03-21 06:00:00 7.7 9 Sudeste 17 Este 1.4 -- -- 97
2020-03-21 05:00:00 8.5 10 Sur 17 Sur 4.2 -- -- 98
2020-03-21 04:00:00 9 4 Sudoeste 15 Sudoeste 2 -- -- 99
2020-03-21 03:00:00 9.1 3 Este 9 Nordeste 1.6 -- -- 99
2020-03-21 02:00:00 9.1 3 Norte 8 Noroeste 2.8 -- -- 99
2020-03-21 01:00:00 9.1 4 Nordeste 11 Nordeste 3.4 -- -- 99
2020-03-21 00:00:00 9 6 Noroeste 28 Oeste 5.8 -- -- 98
2020-03-20 23:00:00 10.2 14 Oeste 30 Oeste 0.2 -- -- 96
2020-03-20 22:00:00 11.3 5 Norte 18 Norte 0 -- -- 98
2020-03-20 21:00:00 11.5 8 Norte 14 Norte 0 -- -- 98
2020-03-20 20:00:00 11.6 5 Norte 9 Norte 0 -- -- 97
2020-03-20 19:00:00 11.9 0 Calma 10 Sudoeste 0.6 -- -- 95
2020-03-20 18:00:00 11.8 8 Sudoeste 21 Sudoeste 0.6 -- -- 91
2020-03-20 17:00:00 13.8 4 Sudeste 8 Nordeste 0 -- -- 88
2020-03-20 16:00:00 13.5 5 Nordeste 9 Sudeste 0 -- -- 91
2020-03-20 15:00:00 12.8 5 Este 12 Este 0 -- -- 94
2020-03-20 14:00:00 12.6 8 Este 14 Este 0.4 -- -- 96
2020-03-20 13:00:00 12 6 Sudeste 14 Sudeste 1.4 -- -- 97
2020-03-20 12:00:00 11.9 9 Sudeste 23 Sudeste 0.2 -- -- 93
2020-03-20 11:00:00 12.4 17 Sudeste 27 Sudeste 0 -- -- 86
2020-03-20 10:00:00 12.2 17 Sudeste 30 Sudeste 0 -- -- 87
2020-03-20 09:00:00 11.8 16 Sudeste 27 Sudeste 0 -- -- 88
2020-03-20 08:00:00 11 17 Sudeste 28 Sudeste 0 -- -- 90
2020-03-20 07:00:00 11.3 17 Sudeste 26 Sudeste 0 -- -- 88
2020-03-20 06:00:00 11.6 18 Sudeste 31 Sudeste 0 -- -- 84
2020-03-20 05:00:00 12.2 16 Sudeste 24 Sudeste 0 -- -- 75
2020-03-20 04:00:00 12.5 16 Sudeste 23 Sudeste 0 -- -- 74
2020-03-20 03:00:00 12.5 13 Sudeste 20 Sudeste 0 -- -- 74
2020-03-20 02:00:00 12.9 13 Sudeste 20 Sudeste 0 -- -- 73
2020-03-20 01:00:00 12.4 10 Sudeste 14 Sudeste 0 -- -- 75
2020-03-20 00:00:00 11.7 3 Sudeste 10 Sudoeste 0 -- -- 77
2020-03-19 23:00:00 12.2 5 Nordeste 7 Este 0 -- -- 73
2020-03-19 22:00:00 12.9 6 Nordeste 17 Este 0 -- -- 70
2020-03-19 21:00:00 13.8 12 Nordeste 20 Nordeste 0 -- -- 67
2020-03-19 20:00:00 14.8 9 Nordeste 13 Norte 0 -- -- 64
2020-03-19 19:00:00 17.3 7 Este 20 Este 0 -- -- 51
2020-03-19 18:00:00 18.1 13 Este 23 Este 0 -- -- 48
2020-03-19 17:00:00 18.6 12 Sudeste 24 Sudeste 0 -- -- 49
2020-03-19 16:00:00 18.8 14 Este 31 Sudeste 0 -- -- 48
2020-03-19 15:00:00 18.8 14 Sudeste 29 Sudeste 0 -- -- 48
2020-03-19 14:00:00 18.7 15 Sudeste 29 Sudeste 0 -- -- 51
2020-03-19 13:00:00 17.6 15 Sudeste 30 Sudeste 0 -- -- 54
2020-03-19 12:00:00 16.3 17 Sudeste 31 Sudeste 0 -- -- 56
2020-03-19 11:00:00 14.5 18 Sudeste 33 Sudeste 0 -- -- 58
2020-03-19 10:00:00 13.1 21 Sudeste 35 Sudeste 0 -- -- 56
2020-03-19 09:00:00 11.1 21 Sudeste 31 Sudeste 0 -- -- 57
2020-03-19 08:00:00 9.8 20 Sudeste 29 Sudeste 0 -- -- 58
2020-03-19 07:00:00 10.3 20 Sudeste 28 Sudeste 0 -- -- 54
2020-03-19 06:00:00 11.6 22 Sudeste 30 Sudeste 0 -- -- 49
2020-03-19 05:00:00 12.1 19 Sudeste 32 Sudeste 0 -- -- 49
2020-03-19 04:00:00 12.5 20 Sudeste 33 Este 0 -- -- 50
2020-03-19 03:00:00 13.5 22 Este 35 Este 0 -- -- 50
2020-03-19 02:00:00 13.7 17 Este 39 Este 0 -- -- 52
2020-03-19 01:00:00 14.4 22 Este 36 Este 0 -- -- 52
2020-03-19 00:00:00 14.9 21 Este 37 Este 0 -- -- 50
2020-03-18 23:00:00 15.5 18 Este 39 Este 0 -- -- 49
2020-03-18 22:00:00 15.7 15 Este 27 Sudeste 0 -- -- 51
2020-03-18 21:00:00 14.3 14 Nordeste 29 Nordeste 0 -- -- 69
2020-03-18 20:00:00 15.2 16 Nordeste 28 Nordeste 0 -- -- 66
2020-03-18 19:00:00 17.2 16 Este 30 Nordeste 0 -- -- 54
2020-03-18 18:00:00 18.4 17 Nordeste 27 Este 0 -- -- 52
2020-03-18 17:00:00 19.3 20 Este 39 Este 0 -- -- 49
2020-03-18 16:00:00 20 20 Este 39 Este 0 -- -- 47
2020-03-18 15:00:00 21 18 Este 33 Este 0 -- -- 44
2020-03-18 14:00:00 20 15 Este 39 Este 0 -- -- 45
2020-03-18 13:00:00 18.8 15 Este 32 Este 0 -- -- 51
2020-03-18 12:00:00 17.1 22 Este 41 Sudeste 0 -- -- 54
2020-03-18 11:00:00 15.8 25 Este 42 Este 0 -- -- 58
2020-03-18 10:00:00 14.7 22 Este 37 Este 0 -- -- 60
2020-03-18 09:00:00 13.3 18 Este 36 Este 0 -- -- 64
2020-03-18 08:00:00 12 18 Este 39 Nordeste 0 -- -- 68
2020-03-18 07:00:00 11.4 17 Nordeste 33 Nordeste 0 -- -- 72
2020-03-18 06:00:00 11.5 14 Nordeste 33 Este 0 -- -- 72
2020-03-18 05:00:00 12.5 14 Nordeste 44 Este 0 -- -- 68
2020-03-18 04:00:00 13.4 23 Este 46 Este 0 -- -- 67
2020-03-18 03:00:00 13.6 26 Este 53 Este 0 -- -- 74
2020-03-18 02:00:00 11.1 9 Norte 35 Nordeste 0 -- -- 82
2020-03-18 01:00:00 14.3 23 Este 46 Nordeste 0 -- -- 70
2020-03-18 00:00:00 14.2 19 Este 40 Este 0 -- -- 71
2020-03-17 23:00:00 14.6 19 Este 38 Este 0 -- -- 68
2020-03-17 22:00:00 13.2 9 Nordeste 16 Nordeste 0 -- -- 58
2020-03-17 21:00:00 13.3 10 Nordeste 19 Nordeste 0 -- -- 55
2020-03-17 20:00:00 13.7 11 Nordeste 25 Este 0 -- -- 51
2020-03-17 19:00:00 15.3 13 Nordeste 30 Nordeste 0 -- -- 45
2020-03-17 18:00:00 16.1 16 Este 35 Este 0 -- -- 40
2020-03-17 17:00:00 16.9 20 Este 39 Este 0 -- -- 41
2020-03-17 16:00:00 16.3 20 Este 37 Sudeste 0 -- -- 41
2020-03-17 15:00:00 15.5 22 Este 39 Este 0 -- -- 42
2020-03-17 14:00:00 14.6 26 Este 39 Este 0 -- -- 47
2020-03-17 13:00:00 14 23 Sudeste 39 Este 0 -- -- 53
2020-03-17 12:00:00 12.8 21 Este 42 Sudeste 0 -- -- 55
2020-03-17 11:00:00 12.6 19 Este 31 Este 0 -- -- 51
2020-03-17 10:00:00 10.6 16 Nordeste 27 Nordeste 0 -- -- 58
2020-03-17 09:00:00 6.8 9 Norte 18 Nordeste 0 -- -- 77
2020-03-17 08:00:00 5.4 9 Nordeste 19 Nordeste 0 -- -- 81
2020-03-17 07:00:00 5.6 7 Nordeste 30 Este 0 -- -- 79
2020-03-17 06:00:00 6 13 Este 32 Nordeste 0 -- -- 78
2020-03-17 05:00:00 3.9 9 Norte 33 Este 0 -- -- 86
2020-03-17 04:00:00 3.5 12 Norte 17 Norte 0 -- -- 90
2020-03-17 03:00:00 3.2 8 Nordeste 14 Norte 0 -- -- 94
2020-03-17 02:00:00 3 8 Nordeste 23 Nordeste 0 -- -- 95
2020-03-17 01:00:00 4 14 Nordeste 24 Nordeste 0 -- -- 93
2020-03-17 00:00:00 4 16 Norte 24 Norte 0 -- -- 94
2020-03-16 23:00:00 4.3 9 Noroeste 14 Noroeste 0 -- -- 94
2020-03-16 22:00:00 4.2 6 Noroeste 19 Norte 0 -- -- 93
2020-03-16 21:00:00 5.3 13 Norte 34 Norte 0 -- -- 91
2020-03-16 20:00:00 5.8 15 Norte 35 Noroeste 0 -- -- 90
2020-03-16 19:00:00 6 22 Noroeste 42 Norte 0.4 -- -- 90
2020-03-16 18:00:00 6.2 26 Noroeste 53 Norte 0.8 -- -- 91
2020-03-16 17:00:00 8 35 Noroeste 60 Noroeste 0.2 -- -- 73
2020-03-16 16:00:00 9.3 36 Noroeste 60 Noroeste 0 -- -- 66
2020-03-16 15:00:00 8 30 Noroeste 64 Noroeste 0 -- -- 71
2020-03-16 14:00:00 8.9 32 Noroeste 51 Noroeste 0 -- -- 67
2020-03-16 13:00:00 9.7 28 Noroeste 52 Noroeste 0 -- -- 58
2020-03-16 12:00:00 9.3 31 Noroeste 52 Noroeste 0 -- -- 60
2020-03-16 11:00:00 7.9 28 Noroeste 50 Noroeste 0 -- -- 66
2020-03-16 10:00:00 6.9 27 Noroeste 47 Noroeste 0 -- -- 69
2020-03-16 09:00:00 4.9 21 Noroeste 37 Noroeste 0 -- -- 76
2020-03-16 08:00:00 3.4 20 Noroeste 36 Noroeste 0 -- -- 82
2020-03-16 07:00:00 3.8 18 Noroeste 33 Noroeste 0 -- -- 79
2020-03-16 06:00:00 3.5 18 Noroeste 32 Noroeste 0 -- -- 82
2020-03-16 05:00:00 3.2 10 Noroeste 24 Oeste 0 -- -- 81
2020-03-16 04:00:00 4.3 15 Noroeste 30 Oeste 0 -- -- 75
2020-03-16 03:00:00 4.5 18 Noroeste 31 Noroeste 0 -- -- 76
2020-03-16 02:00:00 5.1 18 Noroeste 44 Noroeste 0 -- -- 72
2020-03-16 01:00:00 5.8 20 Noroeste 36 Noroeste 0 -- -- 72
2020-03-16 00:00:00 6.9 24 Noroeste 38 Noroeste 0 -- -- 72
2020-03-15 23:00:00 8 19 Noroeste 40 Noroeste 0 -- -- 74
2020-03-15 22:00:00 9.8 25 Noroeste 41 Noroeste 0 -- -- 74
2020-03-15 21:00:00 12.6 19 Noroeste 33 Noroeste 0 -- -- 63
2020-03-15 20:00:00 13.7 23 Noroeste 35 Oeste 0 -- -- 61
2020-03-15 19:00:00 15.3 18 Oeste 35 Oeste 0 -- -- 67
2020-03-15 18:00:00 18 19 Oeste 36 Oeste 0 -- -- 63
2020-03-15 17:00:00 19.1 20 Oeste 34 Oeste 0 -- -- 63
2020-03-15 16:00:00 19.8 23 Sudoeste 37 Sudoeste 0 -- -- 57
2020-03-15 15:00:00 20 20 Oeste 31 Sudoeste 0 -- -- 59
2020-03-15 14:00:00 20.1 15 Sudoeste 26 Sudoeste 0 -- -- 61
2020-03-15 13:00:00 19.2 12 Sudoeste 24 Sudoeste 0 -- -- 62
2020-03-15 12:00:00 18.2 15 Sur 21 Sur 0 -- -- 69
2020-03-15 11:00:00 16.7 14 Sur 20 Sur 0 -- -- 74
2020-03-15 10:00:00 14.6 8 Sur 16 Sudoeste 0 -- -- 83
2020-03-15 09:00:00 11.2 5 Sudeste 18 Sudeste 0 -- -- 94
2020-03-15 08:00:00 10.8 11 Sudeste 16 Sudeste 0 -- -- 94
2020-03-15 07:00:00 11.7 6 Sudeste 9 Sudeste 0 -- -- 91
2020-03-15 06:00:00 12.7 5 Sudeste 7 Sudeste 0 -- -- 87
2020-03-15 05:00:00 14.3 3 Sudoeste 9 Sudoeste 0 -- -- 84
2020-03-15 04:00:00 14.9 6 Sudoeste 10 Sudoeste 0 -- -- 83
2020-03-15 03:00:00 14.9 4 Sur 5 Sur 0 -- -- 78
2020-03-15 02:00:00 15.2 3 Sur 7 Sudoeste 0 -- -- 76
2020-03-15 01:00:00 15.6 7 Sudoeste 9 Sudoeste 0 -- -- 75
2020-03-15 00:00:00 14.8 7 Sudoeste 9 Sudoeste 0 -- -- 80
2020-03-14 23:00:00 15.3 8 Norte 9 Norte 0 -- -- 78
2020-03-14 22:00:00 15.5 4 Norte 6 Norte 0 -- -- 79
2020-03-14 21:00:00 16.3 4 Noroeste 5 Noroeste 0 -- -- 75
2020-03-14 20:00:00 18 4 Noroeste 6 Noroeste 0 -- -- 70
2020-03-14 19:00:00 21.1 4 Oeste 10 Oeste 0 -- -- 59
2020-03-14 18:00:00 22.1 5 Oeste 12 Oeste 0 -- -- 56
2020-03-14 17:00:00 21.8 4 Oeste 12 Oeste 0 -- -- 56
2020-03-14 16:00:00 20.9 4 Oeste 12 Noroeste 0 -- -- 59
2020-03-14 15:00:00 19.9 3 Sudoeste 8 Sudeste 0 -- -- 63
2020-03-14 14:00:00 18.4 4 Sur 15 Sudeste 0 -- -- 71
2020-03-14 13:00:00 15.7 10 Sudeste 20 Sudeste 0 -- -- 89
2020-03-14 12:00:00 12.2 16 Sudeste 27 Sudeste 0 -- -- 99
2020-03-14 11:00:00 11.8 17 Sudeste 26 Sudeste 0 -- -- 100
2020-03-14 10:00:00 11.3 17 Sudeste 26 Sudeste 0 -- -- 100
2020-03-14 09:00:00 10.4 18 Sudeste 25 Sudeste 0 -- -- 100
2020-03-14 08:00:00 8.8 17 Sudeste 24 Sudeste 0 -- -- 99
2020-03-14 07:00:00 9.3 3 Nordeste 6 Noroeste 0 -- -- 97
2020-03-14 06:00:00 9.4 5 Noroeste 9 Oeste 0 -- -- 97
2020-03-14 05:00:00 10.2 4 Noroeste 6 Noroeste 0 -- -- 98
2020-03-14 04:00:00 10.1 5 Oeste 8 Oeste 0 -- -- 98
2020-03-14 03:00:00 10.7 6 Noroeste 10 Noroeste 0 -- -- 98
2020-03-14 02:00:00 10.8 5 Noroeste 9 Noroeste 0 -- -- 97
2020-03-14 01:00:00 11.5 5 Oeste 8 Oeste 0 -- -- 96
2020-03-14 00:00:00 12.6 6 Oeste 10 Sudoeste 0 -- -- 94
2020-03-13 23:00:00 12.9 6 Oeste 9 Oeste 0 -- -- 94
2020-03-13 22:00:00 13.3 5 Sudoeste 8 Sudoeste 0 -- -- 91
2020-03-13 21:00:00 13.7 5 Sudoeste 9 Sudoeste 0 -- -- 89
2020-03-13 20:00:00 14.6 6 Sudoeste 14 Sudoeste 0 -- -- 86
2020-03-13 19:00:00 17.2 9 Sudoeste 14 Sudoeste 0 -- -- 76
2020-03-13 18:00:00 19.1 9 Oeste 20 Oeste 0 -- -- 69
2020-03-13 17:00:00 18.9 11 Oeste 18 Oeste 0 -- -- 68
2020-03-13 16:00:00 18.9 8 Oeste 17 Oeste 0 -- -- 69
2020-03-13 15:00:00 18.7 6 Sudoeste 13 Sudoeste 0 -- -- 71
2020-03-13 14:00:00 18.2 6 Sudeste 15 Sudeste 0 -- -- 73
2020-03-13 13:00:00 17 6 Sudeste 15 Sudeste 0 -- -- 78
2020-03-13 12:00:00 15 3 Sudeste 11 Oeste 0 -- -- 84
2020-03-13 11:00:00 14.1 0 Calma 10 Sudoeste 0 -- -- 88
2020-03-13 10:00:00 12.3 5 Sudoeste 9 Sudoeste 0 -- -- 91
2020-03-13 09:00:00 11.6 0 Calma 9 Sur 0 -- -- 94
2020-03-13 08:00:00 10.1 5 Sur 15 Sudoeste 0 -- -- 97
2020-03-13 07:00:00 10.6 10 Sur 21 Sudoeste 0 -- -- 95
2020-03-13 06:00:00 9.9 6 Sudeste 9 Sudeste 0 -- -- 94
2020-03-13 05:00:00 12 6 Sur 13 Sudoeste 0 -- -- 90
2020-03-13 04:00:00 12.5 8 Sur 10 Sudoeste 0 -- -- 87
2020-03-13 03:00:00 14 0 Calma 6 Noroeste 0 -- -- 80
2020-03-13 02:00:00 14.2 4 Noroeste 10 Sudoeste 0 -- -- 77
2020-03-13 01:00:00 15 6 Sudoeste 9 Sudoeste 0 -- -- 73
2020-03-13 00:00:00 15.3 4 Noroeste 5 Norte 0 -- -- 72
2020-03-12 23:00:00 15.9 4 Oeste 21 Sudoeste 0 -- -- 68
2020-03-12 22:00:00 17.3 14 Sudoeste 22 Sudoeste 0 -- -- 61
2020-03-12 21:00:00 17.5 9 Sudoeste 17 Oeste 0 -- -- 55
2020-03-12 20:00:00 17.6 5 Oeste 14 Sudoeste 0 -- -- 52
2020-03-12 19:00:00 20.4 6 Oeste 19 Oeste 0 -- -- 43
2020-03-12 18:00:00 22.6 11 Oeste 22 Oeste 0 -- -- 36
2020-03-12 17:00:00 23.4 12 Sudoeste 23 Sudoeste 0 -- -- 33
2020-03-12 16:00:00 24.6 14 Sudoeste 24 Sudoeste 0 -- -- 32
2020-03-12 15:00:00 25.1 12 Sur 22 Sur 0 -- -- 33
2020-03-12 14:00:00 23.8 13 Sudeste 25 Sudeste 0 -- -- 34
2020-03-12 13:00:00 22.6 12 Sudeste 23 Sudeste 0 -- -- 39
2020-03-12 12:00:00 21.2 17 Sudeste 26 Sudeste 0 -- -- 44
2020-03-12 11:00:00 20 15 Sudeste 22 Sudeste 0 -- -- 47
2020-03-12 10:00:00 18 15 Sudeste 19 Sudeste 0 -- -- 55
2020-03-12 09:00:00 16.1 12 Sudeste 21 Sudeste 0 -- -- 63
2020-03-12 08:00:00 14 15 Sudeste 21 Sudeste 0 -- -- 67
2020-03-12 07:00:00 14.6 11 Sudeste 15 Sudeste 0 -- -- 63
2020-03-12 06:00:00 15.3 9 Sudeste 12 Sudeste 0 -- -- 57
2020-03-12 05:00:00 15.9 10 Sudeste 13 Sudeste 0 -- -- 54
2020-03-12 04:00:00 16.2 9 Sudeste 15 Sudeste 0 -- -- 53
2020-03-12 03:00:00 16.5 10 Sudeste 20 Sudeste 0 -- -- 52
2020-03-12 02:00:00 17 15 Sudeste 21 Sudeste 0 -- -- 51
2020-03-12 01:00:00 17.7 15 Sudeste 19 Sudeste 0 -- -- 46
2020-03-12 00:00:00 18.3 13 Sudeste 20 Sudeste 0 -- -- 44
2020-03-11 23:00:00 19.3 15 Sudeste 20 Sudeste 0 -- -- 39
2020-03-11 22:00:00 19.8 14 Sudeste 19 Sudeste 0 -- -- 41
2020-03-11 21:00:00 19.5 7 Este 10 Nordeste 0 -- -- 50
2020-03-11 20:00:00 19.8 8 Nordeste 12 Nordeste 0 -- -- 49
2020-03-11 19:00:00 21.2 9 Nordeste 15 Nordeste 0 -- -- 51
2020-03-11 18:00:00 23.5 6 Norte 9 Norte 0 -- -- 46
2020-03-11 17:00:00 24.9 3 Sudeste 8 Sudeste 0 -- -- 32
2020-03-11 16:00:00 25.6 5 Sudeste 11 Sudeste 0 -- -- 30
2020-03-11 15:00:00 25 6 Sudeste 12 Sudeste 0 -- -- 27
2020-03-11 14:00:00 24.9 7 Sudeste 15 Sudeste 0 -- -- 31
2020-03-11 13:00:00 23.2 10 Sudeste 21 Sudeste 0 -- -- 39
2020-03-11 12:00:00 21.1 16 Sudeste 24 Sudeste 0 -- -- 42
2020-03-11 11:00:00 19.2 17 Sudeste 27 Sudeste 0 -- -- 50
2020-03-11 10:00:00 16.7 19 Sudeste 26 Sudeste 0 -- -- 57
2020-03-11 09:00:00 14.6 14 Sudeste 21 Sudeste 0 -- -- 68
2020-03-11 08:00:00 11.4 11 Sudeste 14 Sudeste 0 -- -- 79
2020-03-11 07:00:00 12.3 8 Sudeste 12 Sudeste 0 -- -- 69
2020-03-11 06:00:00 14.6 4 Sudeste 6 Este 0 -- -- 52
2020-03-11 05:00:00 15.5 2 Noroeste 4 Noroeste 0 -- -- 49
2020-03-11 04:00:00 14.9 0 Calma 4 Oeste 0 -- -- 52
2020-03-11 03:00:00 14.7 3 Sur 5 Este 0 -- -- 52
2020-03-11 02:00:00 14.8 3 Norte 8 Oeste 0 -- -- 51
2020-03-11 01:00:00 15.1 5 Oeste 6 Oeste 0 -- -- 49
2020-03-11 00:00:00 15.3 3 Norte 7 Noroeste 0 -- -- 48
2020-03-10 23:00:00 17.1 6 Norte 9 Norte 0 -- -- 43
2020-03-10 22:00:00 17.5 4 Norte 8 Sudoeste 0 -- -- 41
2020-03-10 21:00:00 18.6 5 Sudoeste 7 Sudoeste 0 -- -- 38
2020-03-10 20:00:00 20.3 6 Sudoeste 8 Sudoeste 0 -- -- 36
2020-03-10 19:00:00 23.3 0 Calma 6 Sudeste 0 -- -- 32
2020-03-10 18:00:00 24.5 5 Sur 9 Sur 0 -- -- 30
2020-03-10 17:00:00 24.5 3 Sudoeste 13 Noroeste 0 -- -- 27
2020-03-10 16:00:00 24 3 Sur 12 Sudeste 0 -- -- 29
2020-03-10 15:00:00 23 5 Sudeste 14 Sudeste 0 -- -- 37
2020-03-10 14:00:00 21.8 6 Sudeste 15 Sudeste 0 -- -- 37
2020-03-10 13:00:00 20 9 Sudeste 20 Sudeste 0 -- -- 38
2020-03-10 12:00:00 18 13 Sudeste 30 Sudeste 0 -- -- 46
2020-03-10 11:00:00 15.9 21 Sudeste 29 Sudeste 0 -- -- 51
2020-03-10 10:00:00 13.9 23 Sudeste 27 Sudeste 0 -- -- 54
2020-03-10 09:00:00 12.1 6 Sudeste 11 Sudeste 0 -- -- 58
2020-03-10 08:00:00 8.1 5 Sudeste 6 Este 0 -- -- 70
2020-03-10 07:00:00 7.8 6 Sudeste 8 Sudeste 0 -- -- 68
2020-03-10 06:00:00 8.5 3 Noroeste 8 Oeste 0 -- -- 64
2020-03-10 05:00:00 7.9 4 Noroeste 9 Oeste 0 -- -- 67
2020-03-10 04:00:00 7.5 7 Oeste 9 Noroeste 0 -- -- 70
2020-03-10 03:00:00 7.8 7 Noroeste 12 Noroeste 0 -- -- 64
2020-03-10 02:00:00 9 6 Noroeste 13 Noroeste 0 -- -- 58
2020-03-10 01:00:00 9.7 10 Noroeste 15 Noroeste 0 -- -- 57
2020-03-10 00:00:00 10.6 10 Noroeste 15 Noroeste 0 -- -- 54
2020-03-09 23:00:00 11.1 8 Oeste 13 Oeste 0 -- -- 52
2020-03-09 22:00:00 11.9 8 Oeste 12 Oeste 0 -- -- 49
2020-03-09 21:00:00 12.9 5 Oeste 11 Noroeste 0 -- -- 48
2020-03-09 20:00:00 14.5 6 Noroeste 14 Noroeste 0 -- -- 45
2020-03-09 19:00:00 17.1 8 Noroeste 22 Noroeste 0 -- -- 37
2020-03-09 18:00:00 17.8 13 Noroeste 26 Noroeste 0 -- -- 32
2020-03-09 17:00:00 18.9 14 Noroeste 30 Noroeste 0 -- -- 29
2020-03-09 16:00:00 18.9 18 Noroeste 35 Noroeste 0 -- -- 29
2020-03-09 15:00:00 17.6 19 Noroeste 33 Noroeste 0 -- -- 50
2020-03-09 14:00:00 16.3 20 Noroeste 30 Oeste 0 -- -- 53
2020-03-09 13:00:00 15 15 Noroeste 28 Noroeste 0 -- -- 63
2020-03-09 12:00:00 13.4 17 Noroeste 32 Noroeste 0 -- -- 66
2020-03-09 11:00:00 10.9 17 Noroeste 26 Noroeste 0 -- -- 82
2020-03-09 10:00:00 8.5 13 Noroeste 20 Noroeste 0 -- -- 96
2020-03-09 09:00:00 6.3 8 Noroeste 14 Noroeste 0 -- -- 100
2020-03-09 08:00:00 5.6 9 Noroeste 14 Oeste 0 -- -- 100
2020-03-09 07:00:00 4.8 8 Oeste 15 Noroeste 0 -- -- 99
2020-03-09 06:00:00 6.3 10 Noroeste 18 Noroeste 0 -- -- 99
2020-03-09 05:00:00 6.3 8 Noroeste 13 Noroeste 0 -- -- 99
2020-03-09 04:00:00 6.5 9 Noroeste 13 Oeste 0 -- -- 98
2020-03-09 03:00:00 6.8 6 Oeste 16 Noroeste 0 -- -- 97
2020-03-09 02:00:00 7.7 9 Oeste 14 Oeste 0 -- -- 96
2020-03-09 01:00:00 8.3 9 Noroeste 14 Noroeste 0 -- -- 92
2020-03-09 00:00:00 9 8 Noroeste 11 Noroeste 0 -- -- 85